This is the latest recevied weather packets stored in our database for station/object OE-11344. If no packets are shown the sender has not sent any weather packets the latest 10 day(s).
| Time | Temp. | Humidity | Pressure | Rain* | Wind** | Luminosity | Snow |
|---|---|---|---|---|---|---|---|
| 1788143712 | 12.78° C | 84% | 853.2 hPa | 0 mm | - | 0 W/m² | - |
| 1788143112 | 11.67° C | 86% | 853.1 hPa | 0 mm | - | 0 W/m² | - |
| 1788142285 | 11.67° C | 87% | 853.1 hPa | 0 mm | - | 0 W/m² | - |
| 1788141913 | 12.22° C | 85% | 853 hPa | 0 mm | - | 0 W/m² | - |
| 1788141313 | 12.78° C | 84% | 853.1 hPa | 0 mm | - | 0 W/m² | - |
| 1788140486 | 12.22° C | 85% | 853.1 hPa | 0 mm | - | 0 W/m² | - |
| 1788140113 | 12.78° C | 83% | 853.2 hPa | 0 mm | - | 0 W/m² | - |
| 1788139513 | 12.78° C | 84% | 853.2 hPa | 0 mm | - | 0 W/m² | - |
| 1788138685 | 12.78° C | 82% | 853.1 hPa | 0 mm | - | 0 W/m² | - |
| 1788138313 | 12.78° C | 83% | 853.2 hPa | 0 mm | - | 0 W/m² | - |
| 1788137713 | 12.78° C | 83% | 853.2 hPa | 0 mm | - | 0 W/m² | - |
| 1788136885 | 12.78° C | 82% | 853.2 hPa | 0 mm | - | 0 W/m² | - |
| 1788136513 | 13.33° C | 82% | 853.2 hPa | 0 mm | - | 0 W/m² | - |
| 1788135913 | 13.89° C | 80% | 853.2 hPa | 0 mm | - | 0 W/m² | - |
| 1788135086 | 13.33° C | 81% | 853.3 hPa | 0 mm | - | 0 W/m² | - |
| 1788134713 | 13.33° C | 80% | 853.3 hPa | 0 mm | - | 0 W/m² | - |
| 1788134113 | 13.89° C | 78% | 853.2 hPa | 0 mm | - | 0 W/m² | - |
| 1788133524 | 13.89° C | 79% | 853.3 hPa | 0 mm | - | 0 W/m² | - |
| 1788132912 | 14.44° C | 76% | 853.3 hPa | 0 mm | - | 0 W/m² | - |
| 1788132312 | 14.44° C | 76% | 853.2 hPa | 0 mm | - | 0 W/m² | - |
| 1788131713 | 14.44° C | 75% | 853.3 hPa | 0 mm | - | 0 W/m² | - |
| 1788131113 | 17.22° C | 60% | 853.2 hPa | 0 mm | - | 0 W/m² | - |
| 1788130513 | 17.22° C | 53% | 853.2 hPa | 0 mm | - | 0 W/m² | - |
| 1788129686 | 15.56° C | 73% | 853.5 hPa | 0 mm | - | 0 W/m² | - |
| 1788129313 | 16.11° C | 67% | 853.4 hPa | 0 mm | - | 0 W/m² | - |
* Rain latest hour (hover to see other rain measurements)
** Current wind speed in m/s (hover to see current wind gust speed)